Time;durP1;ratioP1;P1;durP2;ratioP2;P2;SDS_P1;SDS_P2;PMS_P1;PMS_P2;Temp;Humidity;BMP_temperature;BMP_pressure;BME280_temperature;BME280_humidity;BME280_pressure;Samples;Min_cycle;Max_cycle;Signal;HPM_P1;HPM_P2
2023/12/24 00:00:25;;;;;;;0.70;0.70;;;8.50;86.50;;;7.53;87.41;97431.09;5022687;28;20513;-68
2023/12/24 00:02:56;;;;;;;0.70;0.70;;;8.50;86.60;;;7.51;87.22;97423.22;5015045;28;20463;-68
2023/12/24 00:05:26;;;;;;;1.00;0.80;;;8.50;86.30;;;7.14;87.40;97352.19;5018005;28;20489;-68
2023/12/24 00:07:54;;;;;;;1.10;1.00;;;8.50;86.60;;;7.48;87.07;97425.50;4958125;28;20472;-69
2023/12/24 00:10:22;;;;;;;1.43;1.00;;;8.50;86.60;;;7.47;87.65;97423.84;5012975;28;20565;-68
2023/12/24 00:12:49;;;;;;;1.37;1.00;;;8.40;86.60;;;7.51;87.59;97417.06;5019760;28;20466;-69
2023/12/24 00:15:18;;;;;;;2.10;1.10;;;8.50;86.60;;;7.43;88.51;97417.25;5020771;28;21165;-70
2023/12/24 00:17:45;;;;;;;1.67;0.90;;;8.50;86.70;;;7.37;88.97;97422.44;5023490;28;20468;-69
2023/12/24 00:20:14;;;;;;;0.90;0.80;;;8.40;87.00;;;7.37;88.18;97416.22;5012478;28;21054;-69
2023/12/24 00:22:42;;;;;;;1.40;0.87;;;8.40;86.70;;;7.35;87.64;97407.56;5018130;28;20453;-69
2023/12/24 00:25:09;;;;;;;0.83;0.80;;;8.40;86.40;;;7.45;86.89;97407.13;5005745;28;20454;-69
2023/12/24 00:27:36;;;;;;;0.97;0.87;;;8.40;86.20;;;7.43;86.23;97388.53;5017661;28;20454;-69
2023/12/24 00:30:07;;;;;;;0.80;0.80;;;8.40;85.90;;;7.55;85.98;97401.31;5001694;28;20995;-70
2023/12/24 00:32:34;;;;;;;0.90;0.90;;;8.50;85.80;;;7.58;85.43;97417.84;5001773;28;20550;-68
2023/12/24 00:35:01;;;;;;;3.17;1.37;;;8.50;85.50;;;7.56;85.40;97389.50;5007585;28;20458;-69
2023/12/24 00:37:31;;;;;;;1.17;1.07;;;8.60;85.50;;;7.50;84.00;97389.31;5021137;28;20538;-70
2023/12/24 00:39:59;;;;;;;1.10;1.00;;;8.60;85.00;;;7.53;84.06;97385.41;5008286;28;20454;-68
2023/12/24 00:42:27;;;;;;;1.40;1.30;;;8.60;85.00;;;7.58;84.32;97407.09;5019236;28;20462;-69
2023/12/24 00:44:54;;;;;;;2.03;1.30;;;8.60;84.90;;;7.61;84.01;97403.97;5005817;28;20455;-68
2023/12/24 00:47:22;;;;;;;1.30;1.20;;;8.50;84.80;;;7.61;84.03;97414.72;5023028;28;20558;-69
2023/12/24 00:49:49;;;;;;;1.20;1.10;;;8.50;84.80;;;7.57;84.20;97402.75;5000770;28;20545;-68
2023/12/24 00:52:19;;;;;;;1.80;1.03;;;8.60;84.80;;;7.57;83.18;97410.81;4993275;28;20549;-69
2023/12/24 00:54:49;;;;;;;1.10;1.00;;;8.60;84.50;;;7.60;83.47;97407.69;5003293;28;20452;-69
2023/12/24 00:57:16;;;;;;;1.53;1.20;;;8.60;84.60;;;7.57;82.89;97416.19;5022664;28;20470;-69
2023/12/24 00:59:46;;;;;;;1.60;1.23;;;8.60;84.10;;;7.66;83.02;97430.22;5002545;28;20719;-68
2023/12/24 01:02:13;;;;;;;2.27;0.83;;;8.60;84.10;;;7.63;82.43;97415.34;5017551;28;20455;-69
2023/12/24 01:04:41;;;;;;;1.17;1.17;;;8.70;83.80;;;7.34;82.68;97365.59;4995874;28;20975;-69
2023/12/24 01:07:09;;;;;;;1.37;1.00;;;8.60;83.90;;;7.65;82.25;97415.94;5012192;28;20470;-68
2023/12/24 01:09:37;;;;;;;1.00;1.00;;;8.60;83.70;;;7.55;82.20;97394.06;5017506;28;20549;-68
2023/12/24 01:12:07;;;;;;;1.23;1.00;;;8.60;83.50;;;7.65;82.45;97388.25;4998026;28;20498;-68
2023/12/24 01:14:36;;;;;;;0.80;0.80;;;8.60;83.60;;;7.50;82.30;97392.00;4996003;28;20948;-67
2023/12/24 01:17:04;;;;;;;2.20;1.13;;;8.60;83.80;;;7.48;82.64;97393.25;5016306;28;20496;-68
2023/12/24 01:19:32;;;;;;;2.20;1.20;;;8.50;83.60;;;7.55;83.16;97399.44;5014438;28;20471;-70
2023/12/24 01:22:01;;;;;;;1.20;1.10;;;8.50;83.70;;;7.54;82.92;97405.88;4995557;28;20455;-68
2023/12/24 01:24:28;;;;;;;0.80;0.80;;;8.50;84.00;;;7.44;82.77;97394.72;5021761;28;20451;-68
2023/12/24 01:26:57;;;;;;;3.00;1.30;;;8.50;83.90;;;7.60;82.84;97409.56;5017255;28;20458;-68
2023/12/24 01:29:26;;;;;;;1.30;1.20;;;8.50;83.90;;;7.55;83.33;97420.13;5019171;28;20532;-68
2023/12/24 01:31:53;;;;;;;1.60;1.13;;;8.50;83.90;;;7.58;82.53;97417.84;5019500;28;20501;-69
2023/12/24 01:34:23;;;;;;;1.70;1.27;;;8.50;83.70;;;7.59;83.20;97419.50;5022779;28;20486;-67
2023/12/24 01:36:50;;;;;;;1.50;1.00;;;8.50;83.80;;;7.61;82.29;97427.38;5003662;28;21001;-68
2023/12/24 01:39:20;;;;;;;1.17;1.07;;;8.50;83.80;;;7.62;82.30;97437.88;4988268;28;20974;-69
2023/12/24 01:41:48;;;;;;;1.87;1.20;;;8.60;83.50;;;7.69;81.64;97416.34;4997025;28;20931;-69
2023/12/24 01:44:16;;;;;;;1.67;1.40;;;8.60;83.50;;;7.62;81.87;97419.06;5005462;28;20462;-67
2023/12/24 01:46:45;;;;;;;1.33;1.00;;;8.60;83.40;;;7.59;82.24;97432.94;5022622;28;20987;-69
2023/12/24 01:49:15;;;;;;;1.20;1.10;;;8.60;83.60;;;7.45;82.93;97410.66;4998056;28;20519;-67
2023/12/24 01:51:42;;;;;;;0.93;0.87;;;8.60;83.80;;;7.17;82.75;97365.22;5018637;28;20465;-69
2023/12/24 01:54:12;;;;;;;1.67;1.57;;;8.50;83.60;;;7.64;83.32;97438.50;5009722;28;20541;-69
2023/12/24 01:56:40;;;;;;;1.87;0.90;;;8.60;83.90;;;7.62;83.40;97442.44;5011271;28;20486;-68
2023/12/24 01:59:09;;;;;;;0.70;0.70;;;8.60;84.00;;;7.56;84.26;97441.44;5009592;28;20457;-69
2023/12/24 02:01:39;;;;;;;1.17;1.07;;;8.50;84.10;;;7.62;84.28;97435.19;5023534;28;20463;-69
2023/12/24 02:04:09;;;;;;;1.00;1.00;;;8.60;84.40;;;7.55;84.93;97439.78;4999801;28;20455;-68
2023/12/24 02:06:39;;;;;;;1.70;0.93;;;8.60;84.80;;;7.53;85.49;97438.31;5027132;28;20552;-68
2023/12/24 02:09:06;;;;;;;1.07;1.00;;;8.50;84.80;;;7.59;85.49;97424.06;5017378;28;20482;-67
2023/12/24 02:11:33;;;;;;;1.10;1.00;;;8.50;84.80;;;7.54;85.36;97426.53;5013605;28;20462;-68
2023/12/24 02:14:02;;;;;;;3.13;1.20;;;8.50;84.80;;;7.52;85.14;97426.75;5001869;28;20463;-68
2023/12/24 02:16:37;;;;;;;1.70;1.00;;;8.50;84.70;;;7.56;85.01;97430.69;5019223;28;20565;-68
2023/12/24 02:19:12;;;;;;;1.20;1.10;;;8.50;84.70;;;7.61;83.99;97438.94;5024447;28;21317;-68
2023/12/24 02:21:41;;;;;;;1.80;1.07;;;8.50;84.40;;;7.59;83.68;97430.25;5000129;28;20574;-69
2023/12/24 02:24:08;;;;;;;1.03;0.70;;;8.50;84.30;;;7.55;84.49;97439.78;5017965;28;20477;-68
2023/12/24 02:26:43;;;;;;;1.80;1.20;;;8.50;84.10;;;7.53;83.62;97427.56;5022689;28;20496;-69
2023/12/24 02:29:20;;;;;;;1.93;1.30;;;8.50;84.10;;;7.61;82.83;97444.31;4999167;28;20485;-68
2023/12/24 02:31:51;;;;;;;1.93;0.93;;;8.60;84.00;;;7.62;83.10;97442.44;5022404;28;20458;-68
2023/12/24 02:34:20;;;;;;;1.60;0.80;;;8.60;83.80;;;7.65;82.16;97423.22;5015754;28;20981;-74
2023/12/24 02:36:50;;;;;;;1.57;1.20;;;8.60;83.50;;;7.71;81.74;97426.91;5021469;28;20466;-69
2023/12/24 02:39:19;;;;;;;0.80;0.80;;;8.60;83.40;;;7.68;81.78;97430.03;5010397;28;20963;-69
2023/12/24 02:41:55;;;;;;;2.90;0.90;;;8.60;83.50;;;7.68;81.54;97443.47;5022504;28;20458;-69
2023/12/24 02:44:23;;;;;;;0.70;0.70;;;8.60;83.40;;;7.72;81.09;97428.56;5024107;28;20458;-67
2023/12/24 02:46:51;;;;;;;0.90;0.80;;;8.70;83.10;;;7.70;81.76;97430.66;4987657;28;20467;-68
2023/12/24 02:49:19;;;;;;;2.60;0.93;;;8.70;83.10;;;7.73;81.59;97424.84;5005653;28;20483;-68
2023/12/24 02:51:46;;;;;;;1.53;1.00;;;8.70;83.10;;;7.67;81.99;97436.44;5003361;28;20552;-68
2023/12/24 02:54:17;;;;;;;1.40;0.80;;;8.60;83.20;;;7.68;82.20;97427.34;5004030;28;20463;-69
2023/12/24 02:56:44;;;;;;;1.20;0.90;;;8.70;83.30;;;7.71;82.09;97418.84;4977438;28;20481;-69
2023/12/24 02:59:11;;;;;;;1.80;0.87;;;8.70;83.20;;;7.71;82.13;97424.22;5025372;28;20458;-68
2023/12/24 03:01:40;;;;;;;1.10;0.90;;;8.70;83.30;;;7.69;82.14;97426.31;4975859;28;20834;-71
2023/12/24 03:04:07;;;;;;;1.00;1.00;;;8.70;83.30;;;7.67;81.53;97420.31;5006920;28;20949;-69
2023/12/24 03:06:37;;;;;;;1.53;1.20;;;8.60;83.40;;;7.71;81.58;97421.53;5024176;28;20455;-69
2023/12/24 03:09:05;;;;;;;2.00;0.93;;;8.70;83.20;;;7.68;82.09;97411.22;5020675;28;20488;-68
2023/12/24 03:11:33;;;;;;;0.90;0.80;;;8.70;83.20;;;7.70;81.72;97423.38;5025895;28;20442;-68
2023/12/24 03:14:05;;;;;;;1.30;1.03;;;8.70;83.10;;;7.63;81.41;97415.34;5007540;28;20954;-68
2023/12/24 03:16:35;;;;;;;1.47;1.30;;;8.60;83.00;;;7.67;81.39;97420.31;5021169;28;20451;-69
2023/12/24 03:19:03;;;;;;;1.63;1.10;;;8.70;83.10;;;7.71;81.51;97414.28;5009873;28;20452;-69
2023/12/24 03:21:33;;;;;;;1.27;1.17;;;8.70;83.20;;;7.69;82.00;97426.31;5002818;28;20462;-69
2023/12/24 03:24:02;;;;;;;2.97;1.00;;;8.70;83.30;;;7.61;82.83;97422.78;5023475;28;20577;-69
2023/12/24 03:26:34;;;;;;;1.10;1.00;;;8.70;83.60;;;7.62;82.66;97424.44;5016909;28;20509;-69
2023/12/24 03:29:06;;;;;;;1.60;1.13;;;8.60;83.40;;;7.56;82.95;97403.78;4981161;28;20456;-67
2023/12/24 03:31:34;;;;;;;1.87;1.47;;;8.60;83.30;;;7.62;82.38;97405.63;5007040;28;20591;-68
2023/12/24 03:34:02;;;;;;;2.13;1.37;;;8.60;83.30;;;7.62;82.55;97413.69;5019882;28;20522;-68
2023/12/24 03:36:30;;;;;;;2.07;1.30;;;8.60;83.40;;;7.57;82.11;97404.59;4998948;28;20466;-68
2023/12/24 03:38:57;;;;;;;3.13;1.57;;;8.60;83.20;;;7.64;82.12;97406.22;5023975;28;20527;-69
2023/12/24 03:41:25;;;;;;;0.83;0.83;;;8.60;83.20;;;7.70;81.85;97411.81;5019544;28;20489;-68
2023/12/24 03:43:53;;;;;;;1.23;1.13;;;8.60;83.10;;;7.67;81.62;97401.50;5023396;28;20470;-68
2023/12/24 03:46:29;;;;;;;1.67;1.03;;;8.70;83.00;;;7.76;81.20;97394.81;5019040;28;20462;-68
2023/12/24 03:48:57;;;;;;;1.57;1.10;;;8.70;83.10;;;7.72;81.82;97399.00;5022133;28;20465;-67
2023/12/24 03:51:25;;;;;;;1.50;1.10;;;8.70;82.90;;;7.70;81.28;97393.00;5015783;28;20543;-68
2023/12/24 03:53:52;;;;;;;3.00;1.37;;;8.70;83.00;;;7.73;81.29;97414.09;5004060;28;20455;-68
2023/12/24 03:56:21;;;;;;;2.03;1.40;;;8.70;82.80;;;7.71;81.23;97395.47;5011480;28;20554;-68
2023/12/24 03:58:48;;;;;;;1.93;0.73;;;8.70;82.70;;;7.79;81.48;97386.31;5018864;28;20450;-68
2023/12/24 04:01:15;;;;;;;1.27;0.87;;;8.70;82.80;;;7.76;81.24;97392.13;5017954;28;20446;-68
2023/12/24 04:03:46;;;;;;;1.13;1.03;;;8.70;82.70;;;7.80;80.14;97398.72;5027908;28;20479;-69
2023/12/24 04:06:16;;;;;;;1.00;0.97;;;8.70;82.40;;;7.70;80.67;97379.56;5021115;28;21030;-69
2023/12/24 04:08:44;;;;;;;1.87;0.93;;;8.70;82.50;;;7.82;80.26;97391.31;4988742;28;20543;-69
2023/12/24 04:11:16;;;;;;;1.30;0.93;;;8.80;82.50;;;7.71;80.00;97378.50;5018267;28;20489;-68
2023/12/24 04:13:44;;;;;;;1.67;0.70;;;8.70;82.20;;;7.77;79.73;97385.72;5017786;28;20470;-68
2023/12/24 04:16:13;;;;;;;0.60;0.60;;;8.80;82.20;;;7.69;80.20;97380.59;5002545;28;20464;-69
2023/12/24 04:18:41;;;;;;;1.03;0.90;;;8.70;82.20;;;7.76;80.54;97381.38;5000833;28;20541;-70
2023/12/24 04:21:11;;;;;;;1.97;0.70;;;8.70;82.20;;;7.82;79.94;97388.63;5022706;28;20547;-68
2023/12/24 04:23:39;;;;;;;0.83;0.80;;;8.80;82.10;;;7.76;80.28;97374.16;5015779;28;20963;-69
2023/12/24 04:26:07;;;;;;;0.70;0.60;;;8.80;82.10;;;7.84;79.46;97383.84;5000518;28;20463;-69
2023/12/24 04:28:41;;;;;;;1.00;0.60;;;8.80;82.10;;;7.80;80.00;97394.19;5008545;28;20467;-69
2023/12/24 04:31:09;;;;;;;2.23;0.77;;;8.80;82.00;;;7.80;79.67;97383.44;5023472;28;20517;-68
2023/12/24 04:33:36;;;;;;;0.60;0.60;;;8.70;81.90;;;7.74;79.82;97367.31;4995107;28;20816;-68
2023/12/24 04:36:05;;;;;;;0.90;0.80;;;8.80;82.10;;;7.76;79.62;97367.94;4993047;28;20455;-69
2023/12/24 04:38:34;;;;;;;0.70;0.70;;;8.80;82.00;;;7.70;79.81;97388.44;4998610;28;20469;-68
2023/12/24 04:41:01;;;;;;;1.63;0.70;;;8.70;81.90;;;7.68;79.82;97373.56;5002899;28;20547;-68
2023/12/24 04:43:29;;;;;;;1.33;0.93;;;8.70;81.90;;;7.75;79.78;97390.50;5014025;28;20447;-68
2023/12/24 04:45:56;;;;;;;0.50;0.40;;;8.70;81.80;;;7.79;79.20;97397.09;5017643;28;20454;-69
2023/12/24 04:48:25;;;;;;;0.93;0.83;;;8.80;81.80;;;7.68;79.52;97393.19;5001368;28;20469;-68
2023/12/24 04:50:54;;;;;;;0.93;0.80;;;8.70;81.80;;;7.72;79.83;97397.09;4994974;28;20545;-68
2023/12/24 04:53:23;;;;;;;0.60;0.60;;;8.70;81.90;;;7.74;79.49;97418.41;5010835;28;20463;-68
2023/12/24 04:55:51;;;;;;;1.13;0.67;;;8.70;81.80;;;7.76;80.03;97416.34;4996678;28;20455;-70
2023/12/24 04:58:20;;;;;;;1.60;0.50;;;8.70;81.80;;;7.76;79.98;97408.28;5013249;28;20538;-69
2023/12/24 05:00:48;;;;;;;0.60;0.50;;;8.70;82.00;;;7.70;80.23;97387.63;5025945;28;20451;-69
2023/12/24 05:03:16;;;;;;;0.73;0.70;;;8.70;81.90;;;7.62;79.90;97359.91;4996165;28;20534;-68
2023/12/24 05:05:43;;;;;;;1.27;0.63;;;8.70;82.00;;;7.62;80.71;97357.22;4994921;28;20479;-69
2023/12/24 05:08:11;;;;;;;1.53;0.70;;;8.70;82.00;;;7.70;80.14;97376.88;5011633;28;21230;-69
2023/12/24 05:10:39;;;;;;;0.80;0.57;;;8.70;82.00;;;7.69;79.90;97370.66;5001309;28;20876;-69
2023/12/24 05:13:11;;;;;;;2.23;0.70;;;8.70;81.80;;;7.67;79.57;97355.78;5006939;28;20450;-70
2023/12/24 05:15:40;;;;;;;0.80;0.70;;;8.70;81.80;;;7.64;79.86;97363.22;5018991;28;20552;-71
2023/12/24 05:18:07;;;;;;;0.83;0.83;;;8.60;81.70;;;7.66;79.52;97376.47;5018821;28;20463;-69
2023/12/24 05:20:35;;;;;;;2.03;0.70;;;8.60;81.70;;;7.70;79.03;97372.28;5003269;28;20835;-69
2023/12/24 05:23:03;;;;;;;0.90;0.90;;;8.60;81.50;;;7.70;78.97;97387.63;5005216;28;20947;-70
2023/12/24 05:25:31;;;;;;;0.60;0.50;;;8.70;81.70;;;7.73;79.55;97387.19;5018885;28;20466;-69
2023/12/24 05:27:59;;;;;;;1.37;0.87;;;8.70;81.60;;;7.61;79.46;97385.16;5003143;28;20513;-69
2023/12/24 05:30:29;;;;;;;0.70;0.60;;;8.60;81.60;;;7.64;78.78;97371.28;5019315;28;20532;-69
2023/12/24 05:32:59;;;;;;;0.80;0.80;;;8.70;81.60;;;7.65;79.53;97385.56;5007738;28;20451;-69
2023/12/24 05:35:30;;;;;;;1.07;0.97;;;8.70;81.80;;;7.70;79.09;97382.25;5015600;28;20572;-70
2023/12/24 05:37:57;;;;;;;1.07;0.97;;;8.60;81.50;;;7.71;78.97;97389.28;4998622;28;20447;-70
2023/12/24 05:40:28;;;;;;;1.80;1.10;;;8.70;81.60;;;7.65;79.09;97402.50;4993206;28;20454;-69
2023/12/24 05:42:55;;;;;;;1.67;1.03;;;8.60;81.40;;;7.63;79.40;97388.44;4987800;28;20524;-70
2023/12/24 05:45:23;;;;;;;0.97;0.70;;;8.60;81.50;;;7.68;79.56;97378.94;5025631;28;20448;-69
2023/12/24 05:47:52;;;;;;;0.93;0.93;;;8.70;81.50;;;7.71;78.67;97397.34;5019157;28;20462;-68
2023/12/24 05:50:20;;;;;;;1.30;0.90;;;8.70;81.50;;;7.71;79.54;97391.97;5025805;28;20859;-68
2023/12/24 05:52:47;;;;;;;1.23;0.97;;;8.70;81.50;;;7.75;79.23;97395.88;5004569;28;20483;-68
2023/12/24 05:55:14;;;;;;;1.70;0.83;;;8.70;81.50;;;7.80;79.26;97409.50;5015961;28;20876;-69
2023/12/24 05:57:41;;;;;;;1.83;0.60;;;8.70;81.50;;;7.76;79.47;97392.97;5003232;28;20545;-68
2023/12/24 06:00:13;;;;;;;1.00;0.90;;;8.70;81.60;;;7.68;79.63;97384.31;5025650;28;20978;-70
2023/12/24 06:02:40;;;;;;;0.70;0.70;;;8.70;81.70;;;7.72;79.38;97402.47;5023391;28;20481;-69
2023/12/24 06:05:09;;;;;;;0.73;0.73;;;8.70;81.70;;;7.74;79.42;97386.16;5017123;28;20466;-70
2023/12/24 06:07:38;;;;;;;0.60;0.60;;;8.70;81.70;;;7.77;79.38;97389.25;5001734;28;20497;-68
2023/12/24 06:10:07;;;;;;;0.97;0.97;;;8.70;81.70;;;7.70;80.67;97383.06;5028236;28;20484;-68
2023/12/24 06:12:35;;;;;;;0.80;0.80;;;8.70;82.00;;;7.72;80.67;97407.06;5021178;28;20474;-69
2023/12/24 06:15:04;;;;;;;1.10;0.87;;;8.70;82.30;;;7.51;80.06;97363.28;5023612;28;20465;-68
2023/12/24 06:17:32;;;;;;;1.20;1.10;;;8.70;81.90;;;7.77;80.42;97404.53;5001686;28;20548;-69
2023/12/24 06:20:00;;;;;;;1.10;1.00;;;8.70;82.30;;;7.70;80.14;97403.75;5009974;28;20457;-69
2023/12/24 06:22:29;;;;;;;1.03;0.83;;;8.70;82.10;;;7.67;80.29;97393.44;5019707;28;20474;-68
2023/12/24 06:24:58;;;;;;;2.00;1.00;;;8.70;82.10;;;7.64;81.61;97384.72;5026253;28;20462;-70
2023/12/24 06:27:25;;;;;;;0.90;0.90;;;8.70;82.50;;;7.62;82.58;97380.63;5005517;28;20450;-69
2023/12/24 06:29:52;;;;;;;1.33;1.17;;;8.60;82.60;;;7.61;83.32;97398.59;5002114;28;20444;-70
2023/12/24 06:32:21;;;;;;;6.43;1.10;;;8.60;83.10;;;7.55;83.53;97391.38;5014618;28;20566;-69
2023/12/24 06:34:48;;;;;;;0.77;0.60;;;8.50;83.30;;;7.54;83.56;97403.19;5010858;28;20447;-70
2023/12/24 06:37:16;;;;;;;1.23;0.70;;;8.50;83.50;;;7.57;83.90;97409.97;5018045;28;20459;-69
2023/12/24 06:39:46;;;;;;;0.87;0.70;;;8.50;83.80;;;7.48;84.05;97391.41;5024798;28;20989;-69
2023/12/24 06:42:13;;;;;;;0.80;0.77;;;8.50;83.60;;;7.53;85.65;97401.53;5016297;28;20712;-70
2023/12/24 06:44:42;;;;;;;0.50;0.50;;;8.50;84.30;;;7.39;86.62;97403.41;4986160;28;20448;-69
2023/12/24 06:47:13;;;;;;;1.47;1.00;;;8.40;84.60;;;7.30;88.59;97388.56;5002596;28;20468;-68
2023/12/24 06:49:44;;;;;;;1.67;0.73;;;8.30;85.40;;;7.25;89.75;97391.88;5012433;28;20538;-70
2023/12/24 06:52:12;;;;;;;0.60;0.53;;;8.30;86.50;;;7.18;89.82;97378.44;5017268;28;20975;-68
2023/12/24 06:54:40;;;;;;;0.87;0.87;;;8.20;87.00;;;7.07;92.17;97393.34;4999796;28;20814;-68
2023/12/24 06:57:09;;;;;;;3.47;1.37;;;8.10;87.60;;;7.03;92.68;97384.03;5014883;28;20466;-67
2023/12/24 06:59:37;;;;;;;0.93;0.80;;;8.00;88.50;;;7.04;92.01;97377.63;5019652;28;20452;-68
2023/12/24 07:02:04;;;;;;;0.50;0.50;;;8.00;88.40;;;7.00;92.28;97395.19;4999747;28;20841;-69
2023/12/24 07:04:32;;;;;;;0.70;0.60;;;8.00;88.60;;;6.99;93.08;97390.84;5027248;28;20959;-69
2023/12/24 07:06:59;;;;;;;0.60;0.60;;;8.00;89.30;;;6.98;93.95;97383.84;5020625;28;20508;-69
2023/12/24 07:09:27;;;;;;;1.23;1.13;;;8.00;89.90;;;6.99;94.66;97395.41;5014827;28;20498;-69
2023/12/24 07:11:54;;;;;;;0.70;0.70;;;8.00;90.40;;;6.73;93.94;97349.53;5019594;28;20485;-70
2023/12/24 07:14:24;;;;;;;0.60;0.50;;;8.00;90.20;;;7.00;94.21;97397.88;5022957;28;20447;-70
2023/12/24 07:16:51;;;;;;;1.00;0.70;;;8.00;90.30;;;7.00;94.90;97394.38;5005889;28;20451;-71
2023/12/24 07:19:20;;;;;;;0.70;0.60;;;8.00;90.50;;;6.94;95.42;97398.72;5011289;28;20525;-69
2023/12/24 07:21:47;;;;;;;0.70;0.50;;;8.00;90.70;;;6.95;96.47;97392.31;5021485;28;20460;-69
2023/12/24 07:24:17;;;;;;;0.73;0.60;;;7.90;91.20;;;6.96;96.13;97399.34;5007318;28;20455;-70
2023/12/24 07:26:44;;;;;;;0.50;0.50;;;7.90;91.30;;;7.04;96.18;97396.44;5007343;28;20535;-69
2023/12/24 07:29:12;;;;;;;0.90;0.70;;;7.90;91.50;;;7.03;96.97;97394.78;4989538;28;20904;-68
2023/12/24 07:31:43;;;;;;;1.77;0.80;;;8.00;91.80;;;7.01;97.59;97394.16;5003504;28;20474;-68
2023/12/24 07:34:15;;;;;;;0.93;0.70;;;8.00;92.00;;;7.00;97.40;97384.44;5016864;28;20454;-69
2023/12/24 07:36:43;;;;;;;2.20;1.63;;;8.00;92.20;;;7.22;98.94;97379.66;5020448;28;20448;-69
2023/12/24 07:39:11;;;;;;;1.30;1.00;;;8.10;93.20;;;7.15;98.09;97388.78;5003719;28;20510;-69
2023/12/24 07:41:42;;;;;;;0.67;0.50;;;8.10;92.50;;;7.02;98.41;97387.75;5008746;28;20443;-68
2023/12/24 07:44:11;;;;;;;1.20;1.10;;;8.00;92.50;;;7.15;100.00;97389.63;5022095;28;20462;-68
2023/12/24 07:46:38;;;;;;;0.80;0.50;;;8.10;93.70;;;7.22;97.63;97397.66;5020693;28;20474;-68
2023/12/24 07:49:10;;;;;;;0.80;0.70;;;8.10;92.70;;;7.03;97.42;97378.66;5016222;28;20478;-70
2023/12/24 07:51:38;;;;;;;0.60;0.57;;;8.10;92.00;;;7.34;96.64;97400.53;5016676;28;20549;-68
2023/12/24 07:54:11;;;;;;;1.10;0.67;;;8.20;92.10;;;7.51;95.58;97384.78;5021148;28;20462;-69
2023/12/24 07:56:39;;;;;;;1.47;1.13;;;8.40;91.90;;;7.41;95.66;97387.09;5015790;28;20457;-68
2023/12/24 07:59:07;;;;;;;1.47;1.37;;;8.40;91.30;;;7.46;95.40;97382.72;5005540;28;20553;-68
2023/12/24 08:04:18;;;;;;;1.07;0.73;;;8.50;91.00;;;7.56;94.85;97387.66;5021814;28;20494;-67
2023/12/24 08:06:47;;;;;;;3.20;0.87;;;8.50;90.90;;;7.50;94.55;97383.13;5012193;28;20559;-68
2023/12/24 08:09:14;;;;;;;0.70;0.60;;;8.50;90.90;;;7.52;94.43;97386.44;5024949;28;20469;-69
2023/12/24 08:11:42;;;;;;;1.27;0.50;;;8.40;91.10;;;7.43;95.15;97388.53;4999699;28;20971;-66
2023/12/24 08:14:09;;;;;;;0.90;0.63;;;8.40;91.20;;;7.38;96.38;97385.63;5016552;28;20459;-68
2023/12/24 08:16:37;;;;;;;0.80;0.53;;;8.40;91.50;;;7.40;95.76;97390.81;5003948;28;20508;-68
2023/12/24 08:19:05;;;;;;;1.07;0.67;;;8.30;91.40;;;6.98;96.13;97322.06;5016884;28;20462;-67
2023/12/24 08:21:35;;;;;;;0.70;0.50;;;8.30;91.40;;;7.22;97.64;97392.28;5004713;28;20517;-67
2023/12/24 08:24:03;;;;;;;0.50;0.40;;;8.30;91.60;;;7.32;96.85;97376.53;4986462;28;20558;-67
2023/12/24 08:26:30;;;;;;;0.80;0.70;;;8.30;92.00;;;7.46;95.72;97384.56;5006243;28;20833;-68
2023/12/24 08:28:58;;;;;;;0.70;0.70;;;8.40;91.80;;;7.45;96.15;97385.63;5017337;28;20465;-67
2023/12/24 08:31:26;;;;;;;1.10;0.87;;;8.40;92.00;;;7.35;97.30;97397.66;5012315;28;20552;-66
2023/12/24 08:33:53;;;;;;;1.30;0.87;;;8.30;92.10;;;6.95;97.35;97322.50;5011564;28;20472;-67
2023/12/24 08:36:22;;;;;;;0.73;0.60;;;8.30;92.30;;;7.37;97.28;97400.94;5010629;28;20768;-67
2023/12/24 08:38:53;;;;;;;1.10;1.00;;;8.30;92.20;;;7.39;97.12;97391.84;5015629;28;20447;-68
2023/12/24 08:41:20;;;;;;;1.10;0.70;;;8.30;92.30;;;7.44;97.83;97395.56;4994919;28;20794;-66
2023/12/24 08:43:48;;;;;;;0.77;0.77;;;8.30;92.50;;;7.18;99.59;97391.88;5015030;28;20469;-69
2023/12/24 08:46:17;;;;;;;0.87;0.87;;;8.20;92.90;;;7.20;99.10;97388.97;5018417;28;21674;-67
2023/12/24 08:48:47;;;;;;;1.17;0.90;;;8.20;93.20;;;7.08;99.76;97397.69;5018670;28;20490;-68
2023/12/24 08:51:15;;;;;;;1.60;0.70;;;8.10;93.00;;;7.18;98.45;97396.41;5015156;28;20475;-66
2023/12/24 08:53:44;;;;;;;0.60;0.50;;;8.10;93.10;;;7.18;99.41;97391.03;4998033;28;20479;-67
2023/12/24 08:56:13;;;;;;;0.70;0.57;;;8.10;93.20;;;7.03;100.00;97389.41;5015004;28;20455;-67
2023/12/24 08:58:41;;;;;;;1.50;0.73;;;8.00;93.40;;;7.12;100.00;97381.13;5014862;28;20529;-67
2023/12/24 09:01:10;;;;;;;1.43;0.83;;;8.00;93.60;;;7.14;100.00;97384.44;4994674;28;20489;-67
2023/12/24 09:03:37;;;;;;;1.10;1.00;;;8.10;93.90;;;7.05;100.00;97376.63;5016537;28;20466;-69
2023/12/24 09:06:05;;;;;;;0.60;0.50;;;8.00;93.80;;;7.03;100.00;97388.59;5012183;28;20451;-68
2023/12/24 09:08:35;;;;;;;1.30;1.20;;;8.00;93.70;;;7.03;100.00;97394.78;4997332;28;20466;-68
2023/12/24 09:11:02;;;;;;;1.87;1.00;;;8.00;93.80;;;7.10;99.93;97394.75;5016900;28;20478;-68
2023/12/24 09:13:32;;;;;;;2.40;0.83;;;8.00;93.40;;;7.05;99.43;97387.34;4994173;28;20467;-67
2023/12/24 09:16:00;;;;;;;2.23;0.90;;;8.00;93.10;;;7.00;100.00;97384.44;5014612;28;20525;-68
2023/12/24 09:18:31;;;;;;;1.50;1.40;;;8.00;93.20;;;7.10;100.00;97386.72;5017531;28;20464;-68
2023/12/24 09:21:06;;;;;;;0.90;0.77;;;8.00;93.60;;;7.07;100.00;97389.81;5010084;28;20462;-69
2023/12/24 09:23:36;;;;;;;0.90;0.60;;;8.00;93.90;;;7.06;100.00;97394.38;5022470;28;20464;-68
2023/12/24 09:26:05;;;;;;;1.03;0.73;;;8.00;93.60;;;6.90;100.00;97390.25;5009383;28;21257;-68
2023/12/24 09:28:40;;;;;;;0.80;0.80;;;7.90;94.10;;;6.94;100.00;97387.97;5009691;28;20517;-70
2023/12/24 09:31:08;;;;;;;1.00;0.70;;;7.90;94.80;;;6.65;100.00;97355.94;4991363;28;20458;-68
2023/12/24 09:33:36;;;;;;;1.40;0.70;;;7.90;95.10;;;6.99;100.00;97396.22;4983976;28;20476;-69
2023/12/24 09:36:09;;;;;;;0.87;0.80;;;7.90;95.50;;;6.92;100.00;97382.81;5012952;28;20574;-69
2023/12/24 09:38:37;;;;;;;1.00;0.80;;;7.90;94.60;;;6.99;100.00;97373.94;4999554;28;20522;-69
2023/12/24 09:41:05;;;;;;;1.30;1.20;;;7.90;95.10;;;7.14;100.00;97382.59;5012272;28;20498;-69
2023/12/24 09:43:39;;;;;;;1.90;0.90;;;8.00;94.40;;;7.09;100.00;97383.22;5003375;28;20602;-69
2023/12/24 09:46:09;;;;;;;2.00;0.93;;;8.00;94.10;;;7.08;100.00;97381.56;5014971;28;20967;-69
2023/12/24 09:48:38;;;;;;;1.50;1.20;;;8.00;94.60;;;7.14;100.00;97395.19;4997424;28;20462;-68
2023/12/24 09:51:06;;;;;;;1.30;0.93;;;8.00;94.60;;;7.11;100.00;97387.56;5000568;28;20473;-68
2023/12/24 09:53:35;;;;;;;0.90;0.90;;;8.00;94.80;;;7.09;100.00;97385.91;5016860;28;20474;-68
2023/12/24 09:56:07;;;;;;;0.90;0.90;;;8.00;94.60;;;7.06;100.00;97382.78;5006113;28;20455;-69
2023/12/24 09:58:41;;;;;;;3.27;1.23;;;8.00;94.90;;;6.93;100.00;97389.81;4995630;28;20463;-68
2023/12/24 10:01:11;;;;;;;1.17;0.90;;;8.00;95.40;;;7.10;100.00;97378.66;5014985;28;21015;-70
2023/12/24 10:03:41;;;;;;;1.07;0.80;;;8.00;96.00;;;7.12;100.00;97381.94;5019665;28;20472;-69
2023/12/24 10:06:10;;;;;;;1.37;1.20;;;8.10;95.20;;;7.05;100.00;97387.34;4998282;28;20454;-69
2023/12/24 10:08:39;;;;;;;1.60;0.90;;;8.00;95.30;;;6.97;100.00;97368.75;4984556;28;20467;-67
2023/12/24 10:11:20;;;;;;;1.43;1.00;;;8.00;95.60;;;7.01;100.00;97369.97;4994316;28;20819;-68
2023/12/24 10:14:03;;;;;;;0.80;0.80;;;8.00;95.50;;;7.06;100.00;97367.53;4980101;28;20458;-68
2023/12/24 10:16:44;;;;;;;1.00;0.90;;;8.00;95.40;;;7.08;100.00;97381.56;4991802;28;20469;-80
2023/12/24 10:19:24;;;;;;;1.17;1.07;;;8.10;94.90;;;6.90;100.00;97333.84;5015933;28;20577;-69
2023/12/24 10:22:01;;;;;;;1.10;1.00;;;8.10;94.70;;;7.14;100.00;97373.69;4981881;28;20460;-67
2023/12/24 10:24:34;;;;;;;1.73;1.00;;;8.10;95.30;;;7.05;100.00;97367.72;5002467;28;20834;-68
2023/12/24 10:27:10;;;;;;;1.00;0.90;;;8.00;95.30;;;7.22;100.00;97368.13;4999209;28;20464;-69
2023/12/24 10:29:45;;;;;;;0.93;0.80;;;8.10;95.50;;;7.27;100.00;97367.47;5000438;28;20488;-67
2023/12/24 10:32:15;;;;;;;1.40;1.30;;;8.10;94.80;;;7.19;100.00;97347.84;5003633;28;20488;-68
2023/12/24 10:34:42;;;;;;;1.10;1.00;;;8.20;94.80;;;7.32;100.00;97349.66;5005731;28;20481;-68
2023/12/24 10:37:21;;;;;;;1.07;0.90;;;8.20;94.40;;;7.28;100.00;97353.81;5016475;28;20466;-69
2023/12/24 10:39:52;;;;;;;0.90;0.90;;;8.30;94.10;;;7.25;100.00;97362.31;5022209;28;20461;-68
2023/12/24 10:42:30;;;;;;;1.70;0.90;;;8.20;94.10;;;7.39;100.00;97360.41;5010398;28;20462;-68